EW2575 Weather Reports


Display with metric or nautical units.
time (UTC)temp
F
wind
direction
speed
MPH
gust
MPH
rain 1hr
in
rain 24hr
in
rain mn
in
humidity
%
barometer
mb
20260901203528 69 298 0.0 2.0 0.00 0.00 0.00 84 1017.1
20260901203042 70 298 0.0 2.0 0.00 0.00 0.00 84 1017.0
20260901202528 70 298 0.0 0.0 0.00 0.00 0.00 84 1017.1
20260901202027 70 298 0.0 3.0 0.00 0.00 0.00 83 1017.0
20260901201527 70 298 0.0 4.0 0.00 0.00 0.00 83 1017.0
20260901201028 70 298 2.0 4.0 0.00 0.00 0.00 82 1017.0
20260901200526 70 298 0.0 3.0 0.00 0.00 0.00 82 1016.9
20260901200040 70 298 1.0 4.0 0.00 0.00 0.00 81 1017.0
20260901195528 71 298 1.0 4.0 0.00 0.00 0.00 81 1016.9
20260901195027 71 298 2.0 4.0 0.00 0.00 0.00 80 1016.8
20260901194528 72 298 2.0 4.0 0.00 0.00 0.00 79 1016.7
20260901194026 72 315 0.0 5.0 0.00 0.00 0.00 79 1016.7
20260901193526 72 295 2.0 5.0 0.00 0.00 0.00 78 1016.6
20260901193027 73 272 2.0 4.0 0.00 0.00 0.00 77 1016.7
20260901192526 73 347 1.0 6.0 0.00 0.00 0.00 76 1016.7
20260901192028 74 347 1.0 6.0 0.00 0.00 0.00 76 1016.6
20260901191525 74 263 2.0 4.0 0.00 0.00 0.00 75 1016.6
20260901191024 74 317 2.0 4.0 0.00 0.00 0.00 75 1016.6
20260901190524 75 279 1.0 4.0 0.00 0.00 0.00 75 1016.5
20260901190040 75 355 2.0 4.0 0.00 0.00 0.00 75 1016.6
20260901185525 75 311 0.0 4.0 0.00 0.00 0.00 76 1016.4
20260901185028 75 336 1.0 4.0 0.00 0.00 0.00 74 1016.5
20260901184524 76 292 1.0 4.0 0.00 0.00 0.00 75 1016.4
20260901184024 75 325 1.0 4.0 0.00 0.00 0.00 76 1016.4
20260901183523 75 340 2.0 8.0 0.00 0.00 0.00 75 1016.5
20260901183028 76 342 3.0 8.0 0.00 0.00 0.00 74 1016.4
20260901182523 76 336 1.0 7.0 0.00 0.00 0.00 75 1016.4
20260901182023 76 284 3.0 8.0 0.00 0.00 0.00 74 1016.5
20260901181523 76 319 3.0 8.0 0.00 0.00 0.00 74 1016.4
20260901181024 76 284 2.0 8.0 0.00 0.00 0.00 74 1016.5
20260901180524 76 306 5.0 8.0 0.00 0.00 0.00 74 1016.5
20260901180022 76 332 1.0 8.0 0.00 0.00 0.00 74 1016.4
20260901175526 76 349 4.0 10.0 0.00 0.00 0.00 74 1016.4
20260901175021 76 311 4.0 10.0 0.00 0.00 0.00 72 1016.5
20260901174531 76 334 3.0 10.0 0.00 0.00 0.00 72 1016.5
20260901174021 77 291 5.0 10.0 0.00 0.00 0.00 72 1016.3
20260901173521 78 275 2.0 11.0 0.00 0.00 0.00 69 1016.4
20260901173020 78 5 7.0 16.0 0.00 0.00 0.00 67 1016.4
20260901172521 79 341 7.0 19.0 0.00 0.00 0.00 62 1016.3
20260901172020 77 193 4.0 16.0 0.00 0.00 0.00 62 1016.5
20260901171525 77 300 5.0 21.0 0.00 0.00 0.00 70 1016.6
20260901171019 77 13 10.0 21.0 0.00 0.00 0.00 67 1016.4
20260901170519 77 153 7.0 10.0 0.00 0.00 0.00 66 1016.7
20260901170020 78 288 3.0 13.0 0.00 0.00 0.00 69 1016.7
20260901165519 78 280 5.0 13.0 0.00 0.00 0.00 66 1016.4
20260901165023 78 172 5.0 29.0 0.00 0.00 0.00 64 1016.6
20260901164519 79 55 15.0 29.0 0.00 0.00 0.00 59 1016.1
20260901164019 79 283 4.0 14.0 0.00 0.00 0.00 62 1016.6
20260901163518 80 16 7.0 18.0 0.00 0.00 0.00 61 1016.4
20260901163024 79 65 8.0 16.0 0.00 0.00 0.00 55 1016.6
20260901162518 79 316 6.0 16.0 0.00 0.00 0.00 60 1016.6
20260901162019 79 252 4.0 27.0 0.00 0.00 0.00 64 1016.5
20260901161517 80 80 15.0 27.0 0.00 0.00 0.00 61 1016.6
20260901161017 79 116 8.0 20.0 0.00 0.00 0.00 55 1016.5
20260901160519 79 319 4.0 18.0 0.00 0.00 0.00 66 1016.8
20260901160016 78 64 3.0 10.0 0.00 0.00 0.00 69 1016.7
20260901155517 77 117 2.0 8.0 0.00 0.00 0.00 71 1017.0
20260901155016 77 350 3.0 12.0 0.00 0.00 0.00 71 1017.0
20260901154523 77 321 4.0 12.0 0.00 0.00 0.00 71 1017.0
20260901154015 77 311 5.0 11.0 0.00 0.00 0.00 70 1017.0
20260901153515 77 325 4.0 13.0 0.00 0.00 0.00 70 1017.1
20260901153027 77 36 5.0 13.0 0.00 0.00 0.00 67 1017.1
20260901152514 77 5 4.0 15.0 0.00 0.00 0.00 67 1017.2
20260901152014 78 274 7.0 16.0 0.00 0.00 0.00 67 1017.2
20260901151517 79 319 5.0 16.0 0.00 0.00 0.00 65 1017.2
20260901151015 79 360 5.0 17.0 0.00 0.00 0.00 61 1017.0
20260901150513 80 355 4.0 30.0 0.00 0.00 0.00 61 1017.3
20260901150027 81 355 15.0 30.0 0.00 0.00 0.00 55 1017.1
20260901145516 80 131 4.0 19.0 0.00 0.00 0.00 60 1017.5
20260901145012 81 26 9.0 19.0 0.00 0.00 0.00 58 1017.3
20260901144512 81 100 7.0 20.0 0.00 0.00 0.00 50 1017.5
20260901144013 82 68 9.0 21.0 0.00 0.00 0.00 49 1017.4
20260901143511 82 83 12.0 23.0 0.00 0.00 0.00 47 1017.4
20260901143011 81 121 11.0 26.0 0.00 0.00 0.00 48 1017.4
20260901142510 81 94 13.0 26.0 0.00 0.00 0.00 49 1017.6
20260901142010 81 117 16.0 26.0 0.00 0.00 0.00 49 1017.4
20260901141510 80 121 7.0 30.0 0.00 0.00 0.00 49 1017.7
20260901141011 80 98 15.0 30.0 0.00 0.00 0.00 56 1017.7
20260901140509 81 101 7.0 25.0 0.00 0.00 0.00 49 1017.7
20260901140016 81 28 8.0 25.0 0.00 0.00 0.00 56 1017.9
20260901135509 82 126 9.0 24.0 0.00 0.00 0.00 49 1017.8
20260901135012 81 86 13.0 25.0 0.00 0.00 0.00 49 1017.8
20260901134511 81 248 10.0 26.0 0.00 0.00 0.00 52 1017.9
20260901134007 80 94 12.0 30.0 0.00 0.00 0.00 49 1017.9
20260901133508 81 134 15.0 27.0 0.00 0.00 0.00 49 1017.7
20260901133011 80 117 15.0 26.0 0.00 0.00 0.00 48 1017.8
20260901132506 80 99 16.0 33.0 0.00 0.00 0.00 49 1017.7
20260901132007 80 119 17.0 33.0 0.00 0.00 0.00 47 1017.9
20260901131507 80 121 15.0 29.0 0.00 0.00 0.00 49 1017.7
20260901131006 80 144 14.0 29.0 0.00 0.00 0.00 49 1017.9
20260901130505 80 104 14.0 29.0 0.00 0.00 0.00 49 1018.0
20260901130005 80 80 18.0 32.0 0.00 0.00 0.00 48 1017.9
20260901125504 80 134 17.0 28.0 0.00 0.00 0.00 47 1018.0
20260901125004 80 130 13.0 33.0 0.00 0.00 0.00 49 1018.0
20260901124503 80 128 21.0 33.0 0.00 0.00 0.00 47 1017.9
20260901124001 80 84 19.0 30.0 0.00 0.00 0.00 48 1018.1
20260901123502 80 90 18.0 28.0 0.00 0.00 0.00 47 1018.0
20260901123100 80 120 14.0 25.0 0.00 0.00 0.00 47 1018.3
20260901122559 80 109 12.0 31.0 0.00 0.00 0.00 49 1018.2
20260901122102 80 71 17.0 32.0 0.00 0.00 0.00 48 1018.3
20260901121559 81 96 12.0 27.0 0.00 0.00 0.00 48 1018.2
20260901121057 81 78 15.0 27.0 0.00 0.00 0.00 47 1018.4
20260901120556 81 78 10.0 25.0 0.00 0.00 0.00 48 1018.6
20260901120119 80 100 14.0 25.0 0.00 0.00 0.00 48 1018.4
20260901115557 80 112 14.0 29.0 0.00 0.00 0.00 49 1018.6
20260901115052 80 120 16.0 29.0 0.00 0.00 0.00 48 1018.4
20260901114551 80 161 13.0 28.0 0.00 0.00 0.00 46 1018.5
20260901114049 80 104 17.0 28.0 0.00 0.00 0.00 47 1018.6
20260901113548 80 126 17.0 28.0 0.00 0.00 0.00 46 1018.7
20260901113055 80 132 13.0 24.0 0.00 0.00 0.00 48 1018.8
20260901112548 79 138 17.0 26.0 0.00 0.00 0.00 48 1018.7
20260901112044 79 112 14.0 26.0 0.00 0.00 0.00 49 1018.9
20260901111544 79 110 15.0 25.0 0.00 0.00 0.00 50 1018.8
20260901111043 79 344 8.0 19.0 0.00 0.00 0.00 56 1019.0
20260901110541 78 126 6.0 19.0 0.00 0.00 0.00 59 1019.0
20260901110041 77 111 6.0 15.0 0.00 0.00 0.00 58 1018.9
20260901105541 77 275 5.0 20.0 0.00 0.00 0.00 70 1018.7
20260901105040 76 173 12.0 20.0 0.00 0.00 0.00 64 1018.8
20260901104546 76 318 2.0 11.0 0.00 0.00 0.00 73 1019.0
20260901104038 77 350 4.0 18.0 0.00 0.00 0.00 68 1018.9
20260901103536 78 339 7.0 24.0 0.00 0.00 0.00 56 1018.6
20260901103034 78 275 11.0 24.0 0.00 0.00 0.00 66 1018.8
20260901102533 77 90 7.0 23.0 0.00 0.00 0.00 62 1018.8
20260901102032 76 323 8.0 23.0 0.00 0.00 0.00 59 1018.7
20260901101531 77 103 11.0 30.0 0.00 0.00 0.00 52 1018.3
20260901101028 76 107 16.0 25.0 0.00 0.00 0.00 56 1018.2
20260901100529 74 113 4.0 20.0 0.00 0.00 0.00 72 1018.5
20260901100025 73 109 9.0 18.0 0.00 0.00 0.00 76 1018.4
20260901095525 73 265 3.0 14.0 0.00 0.00 0.00 77 1018.5
20260901095027 72 328 3.0 14.0 0.00 0.00 0.00 79 1018.4
20260901094524 72 263 2.0 8.0 0.00 0.00 0.00 80 1018.4
20260901094023 72 301 2.0 8.0 0.00 0.00 0.00 79 1018.3
20260901093524 71 340 3.0 6.0 0.00 0.00 0.00 79 1018.2
20260901093021 72 321 2.0 6.0 0.00 0.00 0.00 79 1018.3
20260901092519 72 323 1.0 11.0 0.00 0.00 0.00 78 1018.2
20260901092020 71 336 4.0 11.0 0.00 0.00 0.00 76 1018.1
20260901091519 71 90 1.0 5.0 0.00 0.00 0.00 74 1018.2
20260901091015 72 300 2.0 8.0 0.00 0.00 0.00 72 1018.0
20260901090513 72 126 3.0 8.0 0.00 0.00 0.00 70 1018.2
20260901090018 72 310 2.0 8.0 0.00 0.00 0.00 67 1017.9
20260901085512 72 321 1.0 6.0 0.00 0.00 0.00 65 1017.7
20260901085010 72 314 2.0 5.0 0.00 0.00 0.00 59 1017.8
20260901084508 71 355 2.0 6.0 0.00 0.00 0.00 64 1017.9
20260901084009 71 10 3.0 6.0 0.00 0.00 0.00 62 1017.8
20260901083506 71 349 1.0 8.0 0.00 0.00 0.00 60 1017.7
20260901083006 71 29 1.0 8.0 0.00 0.00 0.00 59 1017.8
20260901082503 72 325 2.0 4.0 0.00 0.00 0.00 53 1017.7
20260901082001 72 128 2.0 5.0 0.00 0.00 0.00 50 1017.7
20260901081600 72 360 1.0 6.0 0.00 0.00 0.00 44 1017.6
20260901081100 72 73 3.0 6.0 0.00 0.00 0.00 44 1017.5
20260901080557 72 355 2.0 8.0 0.00 0.00 0.00 44 1017.5
20260901080056 72 12 3.0 8.0 0.00 0.00 0.00 45 1017.4
20260901075554 72 331 1.0 3.0 0.00 0.00 0.00 43 1017.4
20260901075053 71 348 0.0 4.0 0.00 0.00 0.00 45 1017.5
20260901074552 70 92 0.0 4.0 0.00 0.00 0.00 47 1017.4
20260901074049 69 96 3.0 6.0 0.00 0.00 0.00 46 1017.3
20260901073548 68 99 3.0 6.0 0.00 0.00 0.00 48 1017.3
20260901073046 68 69 4.0 5.0 0.00 0.00 0.00 55 1017.3
20260901072546 68 96 2.0 7.0 0.00 0.00 0.00 50 1017.3
20260901072048 67 115 5.0 7.0 0.00 0.00 0.00 52 1017.3
20260901071559 67 48 2.0 6.0 0.00 0.00 0.00 64 1017.2
20260901071044 67 125 3.0 6.0 0.00 0.00 0.00 58 1017.2
20260901070544 67 82 2.0 5.0 0.00 0.00 0.00 60 1017.2
20260901070045 68 37 3.0 5.0 0.00 0.00 0.00 52 1017.1
20260901065543 67 126 1.0 4.0 0.00 0.00 0.00 51 1017.0
20260901065046 68 109 1.0 4.0 0.00 0.00 0.00 52 1017.0
20260901064543 68 60 2.0 4.0 0.00 0.00 0.00 50 1017.0
20260901064043 68 108 1.0 7.0 0.00 0.00 0.00 50 1016.9
20260901063542 68 116 5.0 7.0 0.00 0.00 0.00 49 1016.9
20260901063042 68 80 3.0 6.0 0.00 0.00 0.00 51 1016.9
20260901062540 67 86 3.0 8.0 0.00 0.00 0.00 54 1016.8
20260901062042 66 84 4.0 9.0 0.00 0.00 0.00 54 1016.9
20260901061541 65 115 7.0 9.0 0.00 0.00 0.00 61 1016.8
20260901061138 65 106 7.0 9.0 0.00 0.00 0.00 66 1016.9
20260901060539 65 108 5.0 7.0 0.00 0.00 0.00 70 1016.9
20260901060038 65 109 5.0 7.0 0.00 0.00 0.00 67 1016.9
20260901055538 65 111 4.0 6.0 0.00 0.00 0.00 68 1017.0
20260901055038 65 111 2.0 4.0 0.00 0.00 0.00 71 1016.9
20260901054538 65 111 1.0 7.0 0.00 0.00 0.00 70 1016.9
20260901054038 65 111 3.0 7.0 0.00 0.00 0.00 63 1016.8
20260901053537 65 111 3.0 8.0 0.00 0.00 0.00 71 1016.6
20260901053040 64 111 6.0 8.0 0.00 0.00 0.00 72 1016.6
20260901052537 64 113 6.0 9.0 0.00 0.00 0.00 75 1016.6
20260901052037 64 109 4.0 8.0 0.00 0.00 0.00 77 1016.6
20260901051533 64 114 6.0 7.0 0.00 0.00 0.00 77 1016.7
20260901051033 64 101 3.0 7.0 0.00 0.00 0.00 77 1016.8
20260901050534 65 111 5.0 7.0 0.00 0.00 0.00 77 1016.9
20260901050031 65 99 4.0 6.0 0.00 0.00 0.00 76 1016.9
20260901045532 65 98 2.0 4.0 0.00 0.00 0.00 76 1016.9
20260901045034 65 124 3.0 7.0 0.00 0.00 0.00 73 1016.9
20260901044531 65 121 3.0 7.0 0.00 0.00 0.00 72 1017.0
20260901044030 65 111 3.0 6.0 0.00 0.00 0.00 72 1016.9
20260901043532 65 114 3.0 6.0 0.00 0.00 0.00 67 1016.9
20260901043029 65 108 5.0 6.0 0.00 0.00 0.00 66 1016.9
20260901042531 65 113 4.0 7.0 0.00 0.00 0.00 69 1017.0
20260901042028 65 107 5.0 7.0 0.00 0.00 0.00 68 1017.0
20260901041527 65 107 5.0 8.0 0.00 0.00 0.00 69 1017.1
20260901041027 65 109 6.0 8.0 0.00 0.00 0.00 70 1017.1
20260901040526 65 109 7.0 8.0 0.00 0.00 0.00 70 1017.1
20260901040026 65 116 5.0 8.0 0.00 0.00 0.00 70 1017.2
20260901035526 65 116 5.0 8.0 0.00 0.00 0.00 68 1017.2
20260901035024 65 113 6.0 8.0 0.00 0.00 0.00 68 1017.2
20260901034523 65 107 6.0 8.0 0.00 0.00 0.00 70 1017.2
20260901034022 65 116 5.0 8.0 0.00 0.00 0.00 72 1017.3
20260901033524 66 124 3.0 7.0 0.00 0.00 0.00 72 1017.2
20260901033024 66 115 3.0 7.0 0.00 0.00 0.00 70 1017.2
20260901032521 65 109 5.0 8.0 0.00 0.00 0.00 67 1017.2
20260901032023 66 115 6.0 8.0 0.00 0.00 0.00 65 1017.3
20260901031530 66 111 5.0 7.0 0.00 0.00 0.00 65 1017.4
20260901031022 66 105 5.0 7.0 0.00 0.00 0.00 66 1017.4
20260901030517 66 116 4.0 7.0 0.00 0.00 0.00 64 1017.5
20260901030017 66 103 5.0 6.0 0.00 0.00 0.00 64 1017.5
20260901025521 66 114 4.0 7.0 0.00 0.00 0.00 65 1017.5
20260901025020 66 113 6.0 7.0 0.00 0.00 0.00 65 1017.6
20260901024516 66 99 5.0 7.0 0.00 0.00 0.00 62 1017.5
20260901024016 66 107 4.0 6.0 0.00 0.00 0.00 64 1017.6
20260901023515 66 112 3.0 6.0 0.00 0.00 0.00 66 1017.6
20260901023024 66 107 3.0 6.0 0.00 0.00 0.00 68 1017.6
20260901022517 66 105 3.0 6.0 0.00 0.00 0.00 65 1017.6
20260901022013 66 114 3.0 6.0 0.00 0.00 0.00 64 1017.7
20260901021517 66 107 3.0 7.0 0.00 0.00 0.00 63 1017.9
20260901021013 66 108 3.0 7.0 0.00 0.00 0.00 61 1017.9
20260901020513 66 108 4.0 6.0 0.00 0.00 0.00 58 1017.9
20260901020026 66 122 4.0 5.0 0.00 0.00 0.00 57 1017.8
20260901015510 66 124 3.0 4.0 0.00 0.00 0.00 60 1017.9
20260901015010 66 124 3.0 6.0 0.00 0.00 0.00 62 1017.9
20260901014511 66 124 3.0 6.0 0.00 0.00 0.00 64 1017.9
20260901014008 66 97 1.0 4.0 0.00 0.00 0.00 63 1018.0
20260901013513 66 121 3.0 4.0 0.00 0.00 0.00 67 1018.1
20260901013018 67 107 2.0 4.0 0.00 0.00 0.00 74 1018.2
20260901012506 67 111 2.0 4.0 0.00 0.00 0.00 71 1018.2
20260901012005 66 133 3.0 4.0 0.00 0.00 0.00 66 1018.3
20260901011513 67 86 2.0 7.0 0.00 0.00 0.00 67 1018.3
20260901011009 66 82 4.0 7.0 0.00 0.00 0.00 63 1018.4
20260901010504 66 109 5.0 6.0 0.00 0.00 0.00 66 1018.5
20260901010003 67 101 3.0 6.0 0.00 0.00 0.00 66 1018.6
20260901005502 67 113 3.0 6.0 0.00 0.00 0.00 64 1018.7
20260901005002 67 121 3.0 5.0 0.00 0.00 0.00 62 1018.8
20260901004502 67 127 3.0 5.0 0.00 0.00 0.00 62 1018.8
20260901004100 67 135 3.0 5.0 0.00 0.00 0.00 68 1018.9
20260901003600 66 132 2.0 7.0 0.00 0.00 0.00 68 1018.9
20260901003104 66 133 3.0 7.0 0.00 0.00 0.00 67 1019.0
20260901002600 66 119 4.0 7.0 0.00 0.00 0.00 70 1019.0
20260901002059 66 110 4.0 7.0 0.00 0.00 0.00 72 1018.9
20260901001613 66 117 3.0 7.0 0.00 0.00 0.00 74 1019.0
20260901001059 66 118 4.0 6.0 0.00 0.00 0.00 78 1019.0
20260901000555 66 118 2.0 3.0 0.00 0.00 0.00 83 1019.1
20260901000055 66 135 1.0 3.0 0.00 0.00 0.00 83 1019.1
20260831235555 66 134 1.0 2.0 0.00 0.00 0.00 85 1019.1
20260831235057 67 187 0.0 2.0 0.00 0.00 0.00 86 1019.1
20260831234555 67 162 1.0 2.0 0.00 0.00 0.00 85 1019.1
20260831234055 68 161 0.0 2.0 0.00 0.00 0.00 84 1019.2
20260831233554 68 161 0.0 3.0 0.00 0.00 0.00 83 1019.2
20260831233052 67 161 1.0 4.0 0.00 0.00 0.00 80 1019.1
20260831232551 67 122 2.0 6.0 0.00 0.00 0.00 77 1019.2
20260831232050 66 115 3.0 5.0 0.00 0.00 0.00 77 1019.1
20260831231551 66 135 3.0 5.0 0.00 0.00 0.00 79 1019.2
20260831231047 66 127 4.0 6.0 0.00 0.00 0.00 82 1019.2
20260831230545 65 113 3.0 4.0 0.00 0.00 0.00 87 1019.2
20260831230049 66 111 2.0 3.0 0.00 0.00 0.00 89 1019.3
20260831225544 67 146 1.0 3.0 0.00 0.00 0.00 91 1019.3
20260831225046 67 146 1.0 3.0 0.00 0.00 0.00 91 1019.3
20260831224544 67 153 2.0 3.0 0.00 0.00 0.00 91 1019.3
20260831224044 67 172 0.0 3.0 0.00 0.00 0.00 91 1019.2
20260831223544 68 172 1.0 5.0 0.00 0.00 0.00 90 1019.3
20260831223044 68 160 2.0 5.0 0.00 0.00 0.00 90 1019.2
20260831222542 67 148 2.0 5.0 0.00 0.00 0.00 90 1019.2
20260831222043 67 13 0.0 1.0 0.00 0.00 0.00 90 1019.2
20260831221554 67 13 0.0 1.0 0.00 0.00 0.00 90 1019.2
20260831221042 67 13 0.0 1.0 0.00 0.00 0.00 90 1019.1
20260831220541 67 13 0.0 1.0 0.00 0.00 0.00 90 1019.2
20260831220041 67 13 0.0 0.0 0.00 0.00 0.00 90 1019.1
20260831215542 67 13 0.0 2.0 0.00 0.00 0.00 90 1019.0
20260831215042 67 13 0.0 2.0 0.00 0.00 0.00 91 1018.9
20260831214552 68 13 1.0 2.0 0.00 0.00 0.00 91 1019.0
20260831214041 68 257 0.0 0.0 0.00 0.00 0.00 91 1018.9
20260831213541 68 257 0.0 1.0 0.00 0.00 0.00 90 1018.9
20260831213049 68 257 0.0 1.0 0.00 0.00 0.00 91 1019.0
20260831212540 68 257 0.0 1.0 0.00 0.00 0.00 91 1019.0
20260831212042 69 257 0.0 1.0 0.00 0.00 0.00 91 1018.9
20260831211541 69 257 0.0 1.0 0.00 0.00 0.00 91 1018.9
20260831211040 69 257 0.0 3.0 0.00 0.00 0.00 91 1018.8
20260831210539 69 257 1.0 3.0 0.00 0.00 0.00 91 1018.8
20260831210039 69 280 0.0 1.0 0.00 0.00 0.00 91 1018.7
20260831205539 69 280 0.0 1.0 0.00 0.00 0.00 90 1018.6
20260831205039 69 280 0.0 1.0 0.00 0.00 0.00 91 1018.6
20260831204543 69 280 0.0 1.0 0.00 0.00 0.00 90 1018.4
20260831204039 69 280 0.0 1.0 0.00 0.00 0.00 91 1018.3